createdAt,value
2019-05-09T00:02:04.651Z,33.80
2019-05-09T00:04:34.068Z,35.53
2019-05-09T00:07:03.728Z,34.50
2019-05-09T00:09:33.646Z,32.33
2019-05-09T00:12:03.874Z,30.23
2019-05-09T00:14:34.246Z,30.87
2019-05-09T00:17:03.981Z,31.40
2019-05-09T00:19:33.537Z,29.03
2019-05-09T00:22:03.398Z,28.57
2019-05-09T00:24:33.282Z,28.57
2019-05-09T00:27:03.886Z,27.07
2019-05-09T00:29:37.570Z,28.53
2019-05-09T00:32:13.581Z,26.97
2019-05-09T00:35:00.672Z,26.70
2019-05-09T00:37:47.762Z,26.90
2019-05-09T00:40:17.189Z,27.03
2019-05-09T00:42:46.594Z,26.00
2019-05-09T00:48:04.504Z,28.23
2019-05-09T00:50:34.272Z,28.13
2019-05-09T00:53:03.746Z,29.37
2019-05-09T00:55:34.709Z,27.17
2019-05-09T00:58:05.629Z,27.90
2019-05-09T01:00:39.329Z,28.93
2019-05-09T01:03:08.729Z,28.77
2019-05-09T01:05:38.175Z,28.87
2019-05-09T01:08:07.730Z,29.17
2019-05-09T01:10:37.181Z,27.40
2019-05-09T01:13:06.649Z,27.17
2019-05-09T01:15:36.151Z,26.70
2019-05-09T01:18:05.553Z,26.60
2019-05-09T01:20:35.039Z,25.90
2019-05-09T01:23:04.583Z,26.97
2019-05-09T01:25:34.169Z,26.93
2019-05-09T01:28:03.606Z,26.70
2019-05-09T01:30:33.679Z,25.20
2019-05-09T01:33:10.447Z,26.73
2019-05-09T01:35:40.050Z,25.40
2019-05-09T01:38:09.579Z,26.50
2019-05-09T01:40:39.472Z,27.27
2019-05-09T01:43:10.379Z,27.13
2019-05-09T01:45:39.880Z,26.20
2019-05-09T01:48:09.482Z,28.37
2019-05-09T01:50:38.920Z,26.73
2019-05-09T01:53:08.560Z,26.80
2019-05-09T01:55:55.813Z,26.07
2019-05-09T01:58:25.528Z,26.00
2019-05-09T02:00:56.757Z,25.50
2019-05-09T02:03:26.683Z,25.43
2019-05-09T02:05:56.272Z,26.63
2019-05-09T02:08:27.372Z,25.67
2019-05-09T02:10:57.249Z,25.40
2019-05-09T02:13:26.696Z,26.07
2019-05-09T02:16:14.265Z,26.50
2019-05-09T02:18:48.574Z,26.07
2019-05-09T02:21:18.105Z,25.93
2019-05-09T02:23:47.549Z,27.57
2019-05-09T02:26:16.980Z,26.40
2019-05-09T02:28:48.057Z,25.23
2019-05-09T02:31:17.491Z,25.60
2019-05-09T02:33:47.068Z,26.67
2019-05-09T02:36:18.988Z,25.93
2019-05-09T02:38:48.719Z,24.67
2019-05-09T02:41:19.648Z,24.87
2019-05-09T02:43:49.933Z,25.73
2019-05-09T02:46:33.961Z,24.57
2019-05-09T02:49:03.520Z,25.33
2019-05-09T02:51:33.069Z,24.83
2019-05-09T02:54:04.321Z,25.03
2019-05-09T02:56:33.778Z,25.93
2019-05-09T02:59:23.103Z,24.43
2019-05-09T03:01:54.439Z,25.53
2019-05-09T03:04:23.936Z,26.50
2019-05-09T03:06:53.526Z,26.03
2019-05-09T03:09:24.405Z,28.20
2019-05-09T03:11:53.908Z,27.50
2019-05-09T03:14:23.407Z,28.23
2019-05-09T03:16:52.831Z,29.47
2019-05-09T03:19:22.627Z,28.40
2019-05-09T03:21:58.509Z,29.50
2019-05-09T03:24:28.839Z,29.93
2019-05-09T03:27:03.130Z,30.20
2019-05-09T03:29:39.614Z,30.67
2019-05-09T03:32:09.410Z,31.20
2019-05-09T03:34:39.109Z,29.63
2019-05-09T03:37:08.821Z,30.17
2019-05-09T03:39:38.251Z,31.20
2019-05-09T03:42:08.000Z,31.80
2019-05-09T03:44:38.536Z,31.77
2019-05-09T03:47:12.681Z,31.17
2019-05-09T03:49:42.124Z,31.93
2019-05-09T03:52:11.994Z,31.77
2019-05-09T03:54:41.427Z,32.43
2019-05-09T03:57:12.471Z,32.00
2019-05-09T03:59:42.083Z,32.37
2019-05-09T04:02:11.478Z,32.17
2019-05-09T04:04:40.905Z,31.43
2019-05-09T04:07:10.328Z,32.83
2019-05-09T04:09:39.937Z,33.37
2019-05-09T04:12:09.464Z,31.13
2019-05-09T04:14:39.842Z,31.33
2019-05-09T04:17:11.745Z,33.33
2019-05-09T04:19:41.149Z,33.07
2019-05-09T04:22:10.648Z,32.67
2019-05-09T04:24:40.256Z,31.90
2019-05-09T04:27:23.108Z,31.90
2019-05-09T04:29:52.537Z,32.17
2019-05-09T04:32:22.338Z,31.97
2019-05-09T04:34:51.785Z,29.93
2019-05-09T04:37:21.213Z,30.30
2019-05-09T04:39:54.082Z,30.43
2019-05-09T04:42:22.774Z,29.43
2019-05-09T04:45:03.374Z,29.20
2019-05-09T04:47:33.738Z,28.60
2019-05-09T04:50:02.324Z,28.30
2019-05-09T04:52:31.762Z,28.33
2019-05-09T04:55:01.221Z,29.10
2019-05-09T04:57:30.658Z,28.07
2019-05-09T05:00:00.067Z,27.00
2019-05-09T05:02:31.134Z,25.87
2019-05-09T05:05:00.533Z,26.37
2019-05-09T05:07:30.115Z,24.83
2019-05-09T05:09:59.512Z,24.13
2019-05-09T05:12:28.932Z,23.13
2019-05-09T05:14:58.528Z,24.23
2019-05-09T05:17:30.620Z,23.07
2019-05-09T05:20:00.234Z,23.67
2019-05-09T05:22:38.694Z,22.87
2019-05-09T05:25:09.298Z,22.17
2019-05-09T05:27:38.892Z,22.10
2019-05-09T05:30:08.970Z,21.80
2019-05-09T05:32:42.767Z,21.43
2019-05-09T05:35:29.279Z,21.33
2019-05-09T05:37:58.780Z,21.03
2019-05-09T05:40:33.255Z,20.23
2019-05-09T05:42:59.599Z,19.00
2019-05-09T05:45:30.648Z,18.73
2019-05-09T05:48:04.428Z,17.97
2019-05-09T05:50:34.268Z,18.07
2019-05-09T05:53:03.717Z,17.10
2019-05-09T05:55:33.124Z,16.17
2019-05-09T05:58:02.606Z,15.93
2019-05-09T06:00:32.040Z,15.50
2019-05-09T06:03:01.480Z,13.90
2019-05-09T06:05:30.893Z,13.53
2019-05-09T06:08:00.399Z,13.87
2019-05-09T06:10:29.883Z,12.70
2019-05-09T06:12:59.310Z,11.87
2019-05-09T06:15:29.006Z,12.13
2019-05-09T06:17:58.559Z,12.37
2019-05-09T06:20:28.290Z,12.40
2019-05-09T06:22:58.406Z,11.90
2019-05-09T06:25:30.536Z,12.33
2019-05-09T06:27:59.051Z,11.90
2019-05-09T06:30:32.116Z,11.60
2019-05-09T06:33:04.945Z,11.50
2019-05-09T06:35:32.864Z,11.87
2019-05-09T06:38:02.590Z,11.33
2019-05-09T06:40:32.022Z,10.80
2019-05-09T06:43:03.160Z,10.00
2019-05-09T06:45:34.295Z,10.80
2019-05-09T06:48:03.889Z,10.20
2019-05-09T06:50:34.821Z,10.00
2019-05-09T06:53:04.386Z,9.50
2019-05-09T06:55:35.370Z,8.93
2019-05-09T06:58:23.014Z,8.80
2019-05-09T07:00:58.539Z,9.17
2019-05-09T07:03:30.170Z,8.50
2019-05-09T07:06:01.262Z,7.43
2019-05-09T07:08:47.844Z,7.23
2019-05-09T07:11:19.167Z,6.80
2019-05-09T07:13:48.735Z,6.07
2019-05-09T07:16:18.824Z,6.03
2019-05-09T07:18:48.587Z,5.80
2019-05-09T07:21:19.108Z,5.60
2019-05-09T07:23:48.552Z,5.10
2019-05-09T07:26:23.601Z,4.97
2019-05-09T07:28:52.991Z,5.00
2019-05-09T07:31:28.530Z,5.00
2019-05-09T07:33:59.613Z,4.50
2019-05-09T07:36:29.735Z,4.33
2019-05-09T07:38:59.303Z,4.33
2019-05-09T07:41:29.874Z,4.53
2019-05-09T07:43:59.350Z,4.63
2019-05-09T07:46:30.355Z,4.70
2019-05-09T07:49:00.365Z,4.87
2019-05-09T07:51:29.869Z,4.20
2019-05-09T07:53:59.410Z,4.37
2019-05-09T07:56:29.311Z,4.33
2019-05-09T07:58:58.756Z,4.30
2019-05-09T08:01:28.348Z,4.03
2019-05-09T08:03:58.569Z,4.17
2019-05-09T08:06:28.970Z,4.20
2019-05-09T08:08:58.575Z,4.40
2019-05-09T08:11:29.486Z,4.13
2019-05-09T08:13:59.054Z,4.40
2019-05-09T08:16:28.472Z,4.07
2019-05-09T08:18:58.063Z,4.23
2019-05-09T08:21:27.924Z,4.10
2019-05-09T08:23:58.030Z,3.77
2019-05-09T08:26:29.995Z,3.47
2019-05-09T08:28:59.030Z,4.07
2019-05-09T08:31:28.529Z,3.90
2019-05-09T08:33:59.252Z,4.10
2019-05-09T08:36:29.094Z,3.50
2019-05-09T08:39:00.161Z,3.33
2019-05-09T08:41:31.226Z,2.93
2019-05-09T08:44:00.700Z,3.30
2019-05-09T08:46:31.657Z,3.30
2019-05-09T08:49:01.051Z,3.37
2019-05-09T08:51:47.241Z,3.00
2019-05-09T08:54:09.137Z,3.20
2019-05-09T08:56:38.831Z,3.33
2019-05-09T08:59:08.754Z,3.00
2019-05-09T09:02:04.911Z,2.93
2019-05-09T09:04:11.092Z,2.80
2019-05-09T09:06:40.705Z,3.00
2019-05-09T09:09:10.099Z,2.83
2019-05-09T09:11:39.509Z,2.80
2019-05-09T09:14:08.907Z,2.80
2019-05-09T09:16:41.509Z,3.60
2019-05-09T09:19:09.468Z,2.93
2019-05-09T09:21:39.013Z,3.10
2019-05-09T09:24:08.863Z,3.07
2019-05-09T09:26:38.476Z,3.30
2019-05-09T09:29:08.599Z,3.03
2019-05-09T09:31:38.167Z,2.67
2019-05-09T09:34:08.046Z,3.00
2019-05-09T09:36:39.056Z,2.93
2019-05-09T09:39:08.754Z,3.17
2019-05-09T09:41:38.896Z,3.00
2019-05-09T09:44:08.993Z,2.60
2019-05-09T09:46:38.687Z,2.97
2019-05-09T09:49:08.562Z,2.50
2019-05-09T09:51:38.467Z,2.60
2019-05-09T09:54:08.731Z,3.20
2019-05-09T09:56:38.914Z,2.67
2019-05-09T09:59:28.396Z,2.50
2019-05-09T10:02:10.265Z,3.17
2019-05-09T10:04:38.339Z,2.40
2019-05-09T10:07:08.929Z,2.60
2019-05-09T10:09:38.513Z,2.77
2019-05-09T10:12:09.043Z,2.98
2019-05-09T10:14:46.208Z,2.70
2019-05-09T10:17:33.786Z,2.72
2019-05-09T10:20:05.609Z,2.67
2019-05-09T10:22:35.053Z,2.58
2019-05-09T10:25:07.846Z,2.35
2019-05-09T10:27:38.738Z,2.60
2019-05-09T10:30:09.647Z,2.70
2019-05-09T10:32:39.209Z,2.62
2019-05-09T10:35:08.916Z,2.47
2019-05-09T10:37:39.451Z,2.65
2019-05-09T10:40:10.644Z,2.83
2019-05-09T10:42:41.715Z,2.45
2019-05-09T10:45:31.195Z,2.60
2019-05-09T10:48:00.696Z,2.20
2019-05-09T10:50:34.025Z,2.23
2019-05-09T10:53:01.346Z,2.70
2019-05-09T10:55:30.739Z,2.70
2019-05-09T10:58:02.225Z,2.53
2019-05-09T11:00:31.555Z,2.87
2019-05-09T11:03:01.037Z,2.50
2019-05-09T11:05:30.443Z,2.40
2019-05-09T11:08:01.580Z,2.53
2019-05-09T11:10:32.848Z,2.70
2019-05-09T11:13:02.117Z,2.53
2019-05-09T11:15:34.352Z,2.70
2019-05-09T11:18:03.858Z,2.55
2019-05-09T11:20:33.495Z,2.52
2019-05-09T11:23:02.921Z,2.77
2019-05-09T11:25:32.620Z,2.33
2019-05-09T11:28:10.878Z,2.50
2019-05-09T11:30:33.500Z,2.60
2019-05-09T11:33:02.947Z,2.10
2019-05-09T11:35:32.342Z,2.40
2019-05-09T11:38:01.776Z,1.97
2019-05-09T11:40:31.340Z,2.33
2019-05-09T11:43:00.850Z,2.40
2019-05-09T11:45:30.304Z,1.93
2019-05-09T11:47:59.809Z,2.43
2019-05-09T11:50:29.202Z,2.63
2019-05-09T11:52:59.973Z,2.97
2019-05-09T11:55:35.670Z,2.83
2019-05-09T11:58:00.735Z,3.00
2019-05-09T12:00:30.137Z,2.00
2019-05-09T12:02:59.633Z,2.47
2019-05-09T12:05:29.047Z,2.13
2019-05-09T12:07:58.511Z,2.37
2019-05-09T12:10:28.539Z,2.47
2019-05-09T12:12:58.498Z,3.37
2019-05-09T12:15:29.050Z,2.17
2019-05-09T12:18:04.043Z,2.40
2019-05-09T12:20:29.982Z,2.53
2019-05-09T12:22:59.425Z,2.43
2019-05-09T12:25:28.825Z,2.50
2019-05-09T12:27:58.671Z,2.43
2019-05-09T12:30:29.808Z,2.20
2019-05-09T12:32:59.286Z,2.50
2019-05-09T12:35:28.720Z,2.33
2019-05-09T12:37:58.175Z,2.40
2019-05-09T12:40:27.682Z,2.50
2019-05-09T12:42:57.118Z,2.00
2019-05-09T12:45:26.520Z,2.03
2019-05-09T12:48:07.628Z,2.40
2019-05-09T12:50:29.441Z,2.27
2019-05-09T12:52:58.369Z,2.20
2019-05-09T12:55:27.862Z,1.90
2019-05-09T12:57:59.519Z,2.57
2019-05-09T13:00:28.532Z,2.30
2019-05-09T13:02:59.475Z,2.37
2019-05-09T13:05:29.106Z,2.30
2019-05-09T13:07:58.632Z,2.73
2019-05-09T13:10:28.419Z,2.57
2019-05-09T13:12:58.866Z,2.23
2019-05-09T13:15:31.118Z,2.27
2019-05-09T13:18:01.113Z,2.63
2019-05-09T13:20:30.508Z,2.30
2019-05-09T13:22:59.969Z,2.33
2019-05-09T13:25:30.268Z,2.73
2019-05-09T13:27:59.945Z,2.40
2019-05-09T13:30:29.347Z,1.87
2019-05-09T13:32:58.758Z,2.40
2019-05-09T13:35:29.130Z,2.47
2019-05-09T13:37:59.683Z,2.10
2019-05-09T13:40:29.422Z,2.53
2019-05-09T13:43:00.666Z,2.30
2019-05-09T13:45:30.057Z,2.10
2019-05-09T13:47:59.548Z,2.27
2019-05-09T13:50:28.980Z,2.57
2019-05-09T13:52:58.530Z,2.60
2019-05-09T13:55:27.956Z,2.23
2019-05-09T13:57:59.276Z,2.10
2019-05-09T14:00:28.809Z,1.83
2019-05-09T14:02:58.544Z,2.07
2019-05-09T14:05:29.102Z,2.13
2019-05-09T14:08:03.280Z,2.10
2019-05-09T14:10:31.659Z,1.77
2019-05-09T14:13:09.823Z,2.23
2019-05-09T14:15:32.346Z,2.17
2019-05-09T14:18:01.764Z,2.00
2019-05-09T14:20:31.157Z,1.70
2019-05-09T14:23:00.580Z,2.00
2019-05-09T14:25:30.056Z,2.27
2019-05-09T14:27:59.873Z,2.20
2019-05-09T14:30:29.302Z,2.07
2019-05-09T14:33:00.309Z,2.27
2019-05-09T14:35:30.058Z,2.30
2019-05-09T14:37:59.484Z,2.40
2019-05-09T14:40:28.918Z,2.47
2019-05-09T14:43:00.503Z,2.10
2019-05-09T14:45:29.932Z,2.37
2019-05-09T14:47:59.419Z,2.33
2019-05-09T14:50:29.414Z,2.93
2019-05-09T14:52:58.845Z,2.67
2019-05-09T14:55:28.697Z,2.70
2019-05-09T14:57:58.182Z,3.00
2019-05-09T15:00:28.815Z,2.73
2019-05-09T15:02:59.302Z,2.70
2019-05-09T15:05:28.771Z,2.30
2019-05-09T15:08:03.052Z,2.57
2019-05-09T15:10:32.734Z,2.33
2019-05-09T15:13:02.176Z,2.60
2019-05-09T15:15:32.765Z,2.80
2019-05-09T15:18:02.486Z,2.90
2019-05-09T15:20:31.905Z,4.47
2019-05-09T15:23:01.341Z,5.20
2019-05-09T15:25:30.747Z,7.40
2019-05-09T15:28:00.348Z,7.77
2019-05-09T15:30:29.977Z,7.10
2019-05-09T15:32:59.760Z,7.40
2019-05-09T15:35:29.171Z,6.73
2019-05-09T15:37:59.221Z,6.43
2019-05-09T15:40:28.728Z,6.00
2019-05-09T15:42:58.975Z,5.50
2019-05-09T15:45:30.092Z,4.97
2019-05-09T15:47:59.520Z,4.60
2019-05-09T15:50:28.921Z,4.83
2019-05-09T15:52:58.518Z,4.83
2019-05-09T15:55:28.461Z,4.90
2019-05-09T15:57:57.960Z,5.63
2019-05-09T16:00:28.397Z,5.83
2019-05-09T16:02:59.077Z,5.37
2019-05-09T16:05:33.177Z,5.60
2019-05-09T16:08:02.604Z,5.70
2019-05-09T16:10:32.043Z,5.00
2019-05-09T16:13:01.470Z,5.20
2019-05-09T16:15:30.974Z,5.57
2019-05-09T16:18:00.787Z,4.77
2019-05-09T16:20:37.410Z,4.67
2019-05-09T16:23:01.561Z,3.87
2019-05-09T16:25:31.189Z,3.43
2019-05-09T16:28:00.823Z,4.00
2019-05-09T16:30:30.314Z,3.83
2019-05-09T16:32:59.883Z,3.47
2019-05-09T16:35:29.288Z,4.10
2019-05-09T16:38:06.351Z,3.30
2019-05-09T16:40:30.097Z,3.20
2019-05-09T16:42:59.522Z,4.13
2019-05-09T16:45:28.928Z,4.43
2019-05-09T16:47:58.422Z,4.60
2019-05-09T16:50:27.983Z,5.33
2019-05-09T16:52:58.457Z,5.33
2019-05-09T16:55:33.745Z,5.27
2019-05-09T16:58:03.198Z,4.37
2019-05-09T17:00:38.061Z,4.00
2019-05-09T17:03:08.128Z,3.00
2019-05-09T17:05:37.991Z,3.30
2019-05-09T17:08:08.178Z,2.77
2019-05-09T17:10:37.850Z,2.50
2019-05-09T17:13:07.932Z,2.20
2019-05-09T17:15:38.924Z,2.20
2019-05-09T17:18:10.020Z,2.10
2019-05-09T17:20:44.224Z,3.47
2019-05-09T17:23:15.453Z,2.70
2019-05-09T17:25:48.258Z,2.23
2019-05-09T17:28:18.013Z,2.37
2019-05-09T17:30:49.275Z,3.37
2019-05-09T17:33:19.052Z,3.60
2019-05-09T17:35:48.616Z,4.27
2019-05-09T17:38:18.317Z,4.27
2019-05-09T17:40:48.618Z,4.77
2019-05-09T17:43:23.397Z,4.60
2019-05-09T17:45:52.911Z,4.90
2019-05-09T17:48:22.345Z,5.57
2019-05-09T17:50:52.055Z,7.00
2019-05-09T17:53:21.628Z,8.53
2019-05-09T17:55:51.105Z,7.57
2019-05-09T17:58:29.865Z,8.83
2019-05-09T18:00:52.177Z,9.10
2019-05-09T18:03:21.629Z,10.37
2019-05-09T18:05:51.164Z,11.03
2019-05-09T18:08:20.641Z,12.13
2019-05-09T18:10:50.327Z,11.93
2019-05-09T18:13:23.883Z,11.37
2019-05-09T18:15:51.404Z,12.50
2019-05-09T18:18:20.851Z,12.70
2019-05-09T18:20:50.690Z,13.23
2019-05-09T18:23:21.880Z,9.90
2019-05-09T18:25:51.306Z,6.83
2019-05-09T18:28:21.029Z,6.17
2019-05-09T18:30:50.505Z,5.63
2019-05-09T18:33:21.666Z,5.63
2019-05-09T18:35:51.074Z,6.23
2019-05-09T18:38:23.571Z,5.97
2019-05-09T18:40:53.076Z,6.20
2019-05-09T18:43:22.532Z,6.60
2019-05-09T18:45:51.943Z,5.97
2019-05-09T18:48:21.445Z,5.50
2019-05-09T18:50:50.978Z,6.10
2019-05-09T18:53:21.228Z,6.17
2019-05-09T18:55:50.643Z,6.43
2019-05-09T18:58:20.183Z,5.67
2019-05-09T19:00:50.079Z,6.30
2019-05-09T19:03:19.600Z,6.87
2019-05-09T19:05:49.054Z,6.77
2019-05-09T19:08:18.529Z,6.50
2019-05-09T19:10:51.970Z,6.37
2019-05-09T19:13:20.713Z,6.53
2019-05-09T19:15:58.317Z,6.80
2019-05-09T19:18:30.713Z,7.40
2019-05-09T19:21:01.772Z,7.07
2019-05-09T19:23:31.504Z,8.10
2019-05-09T19:26:02.555Z,8.63
2019-05-09T19:28:32.085Z,10.40
2019-05-09T19:31:01.569Z,10.20
2019-05-09T19:33:31.066Z,11.67
2019-05-09T19:36:00.648Z,14.50
2019-05-09T19:38:30.095Z,14.07
2019-05-09T19:40:59.511Z,12.73
2019-05-09T19:43:29.034Z,14.23
2019-05-09T19:45:58.443Z,15.47
2019-05-09T19:48:28.207Z,15.60
2019-05-09T19:50:57.840Z,16.27
2019-05-09T19:53:27.278Z,16.83
2019-05-09T19:55:56.695Z,17.33
2019-05-09T19:58:26.251Z,17.13
2019-05-09T20:00:55.707Z,17.83
2019-05-09T20:03:24.296Z,18.03
2019-05-09T20:05:52.936Z,18.10
2019-05-09T20:08:21.736Z,19.73
2019-05-09T20:11:10.444Z,19.50
2019-05-09T20:14:00.166Z,19.23
2019-05-09T20:16:38.149Z,20.00
2019-05-09T20:19:07.114Z,20.17
2019-05-09T20:21:37.136Z,19.87
2019-05-09T20:24:09.483Z,21.30
2019-05-09T20:26:40.217Z,22.23
2019-05-09T20:29:09.790Z,21.57
2019-05-09T20:31:39.234Z,20.33
2019-05-09T20:34:10.809Z,22.30
2019-05-09T20:36:42.373Z,22.53
2019-05-09T20:39:14.524Z,24.50
2019-05-09T20:41:46.320Z,26.40
2019-05-09T20:44:18.173Z,27.60
2019-05-09T20:46:49.091Z,25.47
2019-05-09T20:49:18.790Z,24.00
2019-05-09T20:51:48.616Z,23.67
2019-05-09T20:54:21.773Z,22.37
2019-05-09T20:56:53.628Z,21.93
2019-05-09T20:59:25.034Z,21.63
2019-05-09T21:01:54.816Z,22.73
2019-05-09T21:04:24.463Z,23.60
2019-05-09T21:06:54.245Z,22.00
2019-05-09T21:09:24.208Z,22.53
2019-05-09T21:11:53.977Z,24.23
2019-05-09T21:14:23.845Z,23.63
2019-05-09T21:16:53.463Z,23.10
2019-05-09T21:19:23.071Z,26.00
2019-05-09T21:21:52.989Z,24.97
2019-05-09T21:24:22.769Z,24.00
2019-05-09T21:26:52.388Z,25.67
2019-05-09T21:29:22.028Z,26.40
2019-05-09T21:31:51.611Z,25.07
2019-05-09T21:34:21.335Z,24.23
2019-05-09T21:36:50.784Z,23.93
2019-05-09T21:39:21.832Z,24.90
2019-05-09T21:41:51.302Z,27.07
2019-05-09T21:44:20.709Z,25.40
2019-05-09T21:46:53.197Z,25.37
2019-05-09T21:49:22.598Z,24.03
2019-05-09T21:51:52.596Z,22.73
2019-05-09T21:54:22.019Z,23.50
2019-05-09T21:56:51.447Z,24.03
2019-05-09T21:59:20.851Z,23.43
2019-05-09T22:01:50.444Z,23.33
2019-05-09T22:04:19.852Z,22.97
2019-05-09T22:06:51.530Z,23.63
2019-05-09T22:09:21.154Z,24.73
2019-05-09T22:11:50.777Z,25.90
2019-05-09T22:14:20.622Z,26.03
2019-05-09T22:16:50.887Z,23.97
2019-05-09T22:19:20.416Z,25.13
2019-05-09T22:21:49.889Z,25.40
2019-05-09T22:24:19.405Z,25.13
2019-05-09T22:26:48.810Z,27.20
2019-05-09T22:29:18.338Z,26.50
2019-05-09T22:31:48.717Z,27.77
2019-05-09T22:34:18.156Z,26.70
2019-05-09T22:36:47.663Z,27.80
2019-05-09T22:39:17.092Z,27.23
2019-05-09T22:41:46.600Z,29.87
2019-05-09T22:44:16.166Z,27.93
2019-05-09T22:46:45.606Z,29.67
2019-05-09T22:49:15.055Z,27.80
2019-05-09T22:51:44.455Z,25.93
2019-05-09T22:54:13.860Z,27.07
2019-05-09T22:56:43.371Z,27.40
2019-05-09T22:59:12.788Z,25.60
2019-05-09T23:01:43.375Z,26.03
2019-05-09T23:04:12.799Z,26.93
2019-05-09T23:06:42.202Z,26.63
2019-05-09T23:09:12.810Z,25.80
2019-05-09T23:11:42.246Z,26.00
2019-05-09T23:14:11.649Z,26.73
2019-05-09T23:16:41.620Z,27.33
2019-05-09T23:19:11.252Z,27.93
2019-05-09T23:21:40.646Z,27.20
2019-05-09T23:24:27.393Z,27.33
2019-05-09T23:26:45.774Z,27.10
2019-05-09T23:29:15.246Z,27.67
2019-05-09T23:31:55.050Z,25.87
2019-05-09T23:34:24.689Z,26.43
2019-05-09T23:36:54.289Z,26.67
2019-05-09T23:39:34.588Z,26.90
2019-05-09T23:42:04.285Z,24.97
2019-05-09T23:44:33.659Z,24.20
2019-05-09T23:47:03.117Z,21.93
2019-05-09T23:49:32.610Z,23.07
2019-05-09T23:52:02.011Z,23.10
2019-05-09T23:54:49.133Z,23.40
2019-05-09T23:57:36.712Z,21.80
